Time;durP1;ratioP1;P1;durP2;ratioP2;P2;SDS_P1;SDS_P2;PMS_P1;PMS_P2;Temp;Humidity;BMP_temperature;BMP_pressure;BME280_temperature;BME280_humidity;BME280_pressure;Samples;Min_cycle;Max_cycle;Signal;HPM_P1;HPM_P2
2023/07/23 00:00:14;;;;;;;2.27;1.80;;;;;;;15.44;83.25;100827.06;5032282;28;20028;-82
2023/07/23 00:02:43;;;;;;;2.03;1.83;;;;;;;15.45;83.57;100825.28;5031836;28;20029;-82
2023/07/23 00:05:08;;;;;;;2.00;1.80;;;;;;;15.33;84.39;100799.56;5032110;28;20033;-82
2023/07/23 00:07:46;;;;;;;2.43;1.80;;;;;;;15.32;83.18;100810.94;5032564;28;20156;-83
2023/07/23 00:10:21;;;;;;;1.90;1.70;;;;;;;15.30;84.44;100795.31;5031809;28;20132;-82
2023/07/23 00:12:46;;;;;;;2.20;1.70;;;;;;;15.36;83.62;100816.03;5032876;28;20103;-82
2023/07/23 00:15:12;;;;;;;2.07;1.70;;;;;;;15.35;84.48;100806.47;5031742;28;20466;-82
2023/07/23 00:17:47;;;;;;;2.78;2.08;;;;;;;15.31;83.70;100796.19;5031775;28;20084;-82
2023/07/23 00:20:13;;;;;;;2.10;1.90;;;;;;;15.26;83.40;100786.72;5032500;28;20496;-82
2023/07/23 00:22:39;;;;;;;2.37;1.93;;;;;;;15.27;83.70;100787.56;5035414;28;20017;-82
2023/07/23 00:25:19;;;;;;;2.35;2.05;;;;;;;15.25;85.68;100782.41;5035666;28;20128;-82
2023/07/23 00:27:45;;;;;;;2.20;2.00;;;;;;;15.31;84.72;100780.50;5036268;28;20036;-82
2023/07/23 00:30:10;;;;;;;2.20;1.90;;;;;;;15.24;83.88;100769.41;5036460;28;20026;-82
2023/07/23 00:32:36;;;;;;;2.13;1.93;;;;;;;15.25;84.27;100771.94;5035807;28;20033;-82
2023/07/23 00:35:01;;;;;;;2.00;1.90;;;;;;;15.22;84.22;100758.97;5036504;28;20033;-82
2023/07/23 00:37:38;;;;;;;2.07;1.80;;;;;;;15.29;84.55;100768.31;5034543;28;20026;-82
2023/07/23 00:40:04;;;;;;;2.00;1.80;;;;;;;15.28;85.00;100769.22;5036452;28;20021;-82
2023/07/23 00:42:30;;;;;;;1.70;1.60;;;;;;;15.16;85.09;100740.91;5036370;28;20029;-82
2023/07/23 00:45:01;;;;;;;1.70;1.60;;;;;;;15.28;84.80;100753.53;5035242;28;20363;-82
2023/07/23 00:47:26;;;;;;;2.40;1.90;;;;;;;15.15;84.72;100728.75;5036202;28;20017;-82
2023/07/23 00:49:52;;;;;;;1.87;1.73;;;;;;;15.26;85.31;100744.03;5035687;28;20026;-82
2023/07/23 00:52:21;;;;;;;2.30;1.73;;;;;;;15.25;84.75;100734.50;5035098;28;20052;-82
2023/07/23 00:54:46;;;;;;;1.60;1.50;;;;;;;15.20;85.28;100728.56;5036071;28;20432;-82
2023/07/23 00:57:28;;;;;;;1.90;1.50;;;;;;;15.21;85.32;100727.69;5035693;28;20101;-82
2023/07/23 00:59:56;;;;;;;1.60;1.50;;;;;;;15.12;85.08;100715.78;5035344;28;20032;-82
2023/07/23 01:02:27;;;;;;;1.30;1.20;;;;;;;15.11;84.87;100708.84;5035633;28;20033;-82
2023/07/23 01:04:54;;;;;;;1.67;1.58;;;;;;;15.20;84.10;100720.75;5035785;28;20021;-83
2023/07/23 01:07:27;;;;;;;1.75;1.58;;;;;;;15.18;84.99;100715.56;5034856;28;20112;-82
2023/07/23 01:09:53;;;;;;;1.60;1.50;;;;;;;15.09;84.38;100701.06;5035694;28;20107;-81
2023/07/23 01:12:36;;;;;;;1.80;1.70;;;;;;;15.18;84.61;100717.31;5047225;22;20045;-82
2023/07/23 01:15:06;;;;;;;1.80;1.70;;;;;;;15.13;84.43;100693.97;5074836;28;20045;-82
2023/07/23 01:17:47;;;;;;;1.98;1.80;;;;;;;15.04;84.84;100676.00;5075451;28;20051;-82
2023/07/23 01:20:16;;;;;;;2.25;1.95;;;;;;;15.18;84.83;100702.50;5072837;28;20052;-82
2023/07/23 01:22:44;;;;;;;2.25;2.00;;;;;;;15.16;85.54;100687.75;5074247;28;20460;-83
2023/07/23 01:25:18;;;;;;;2.13;1.70;;;;;;;15.02;84.90;100664.75;5049603;28;20040;-82
2023/07/23 01:27:45;;;;;;;2.30;1.98;;;;;;;15.15;84.18;100681.69;5074487;28;20025;-82
2023/07/23 01:30:20;;;;;;;1.77;1.67;;;;;;;15.03;84.66;100658.63;5074901;28;20055;-82
2023/07/23 01:32:46;;;;;;;2.20;1.83;;;;;;;15.17;84.82;100679.00;5074732;28;20066;-83
2023/07/23 01:35:24;;;;;;;1.65;1.55;;;;;;;15.10;84.85;100668.81;5074381;28;20491;-82
2023/07/23 01:37:51;;;;;;;1.85;1.75;;;;;;;15.16;84.62;100672.09;5075216;28;20036;-82
2023/07/23 01:40:17;;;;;;;1.75;1.65;;;;;;;15.11;85.53;100651.34;5075678;28;20032;-82
2023/07/23 01:42:55;;;;;;;2.10;1.90;;;;;;;15.11;85.84;100646.13;5074697;28;20025;-83
2023/07/23 01:45:36;;;;;;;1.77;1.67;;;;;;;14.98;85.13;100636.13;5074933;28;20028;-83
2023/07/23 01:48:01;;;;;;;2.05;1.50;;;;;;;15.01;85.10;100643.00;5074122;28;20032;-82
2023/07/23 01:50:27;;;;;;;2.03;1.77;;;;;;;15.10;85.37;100652.25;5074988;28;20028;-82
2023/07/23 01:53:01;;;;;;;2.20;2.00;;;;;;;14.98;85.52;100625.66;5075073;28;20453;-83
2023/07/23 01:55:27;;;;;;;1.52;1.42;;;;;;;15.02;85.65;100636.00;5073934;28;20086;-82
2023/07/23 01:57:52;;;;;;;1.67;1.57;;;;;;;14.92;85.64;100612.84;5074794;28;20457;-82
2023/07/23 02:00:24;;;;;;;2.07;1.60;;;;;;;14.92;85.30;100612.84;5074765;28;20032;-82
2023/07/23 02:02:49;;;;;;;1.60;1.50;;;;;;;15.04;86.42;100621.13;5073977;28;20025;-83
2023/07/23 02:05:15;;;;;;;1.40;1.30;;;;;;;14.96;87.25;100605.72;5074100;28;20031;-82
2023/07/23 02:07:58;;;;;;;2.10;1.87;;;;;;;15.00;86.25;100609.94;5074732;28;20524;-82
2023/07/23 02:10:35;;;;;;;1.75;1.60;;;;;;;15.05;86.76;100623.69;5073514;28;20016;-82
2023/07/23 02:13:01;;;;;;;1.70;1.60;;;;;;;14.95;87.28;100601.41;5074246;28;20040;-83
2023/07/23 02:15:35;;;;;;;2.67;2.23;;;;;;;15.01;88.52;100608.19;5074236;28;20017;-82
2023/07/23 02:18:00;;;;;;;2.00;1.80;;;;;;;14.96;87.50;100604.00;5073940;28;20419;-82
2023/07/23 02:20:26;;;;;;;2.10;1.90;;;;;;;14.92;87.04;100597.16;5074322;28;20024;-83
2023/07/23 02:22:51;;;;;;;1.73;1.63;;;;;;;14.92;87.00;100586.72;5073731;28;20036;-83
2023/07/23 02:25:16;;;;;;;3.63;2.00;;;;;;;14.91;87.60;100581.56;5074419;28;20047;-82
2023/07/23 02:27:54;;;;;;;2.17;1.83;;;;;;;14.87;87.69;100570.34;5074422;28;20354;-83
2023/07/23 02:30:19;;;;;;;1.70;1.60;;;;;;;15.01;87.04;100590.75;5073401;28;20048;-82
2023/07/23 02:32:56;;;;;;;2.10;1.90;;;;;;;14.95;86.80;100581.38;5073939;28;20103;-83
2023/07/23 02:35:22;;;;;;;2.35;2.00;;;;;;;14.92;88.13;100567.56;5073651;28;20472;-83
2023/07/23 02:38:03;;;;;;;2.20;1.80;;;;;;;14.96;86.69;100570.03;5073419;28;20028;-82
2023/07/23 02:40:32;;;;;;;2.75;2.00;;;;;;;15.08;86.17;100586.16;5074181;28;20112;-82
2023/07/23 02:42:57;;;;;;;2.38;2.10;;;;;;;15.03;86.62;100573.22;5073894;28;20395;-83
2023/07/23 02:45:23;;;;;;;2.03;1.83;;;;;;;15.07;86.46;100574.81;5072111;28;20020;-82
2023/07/23 02:48:00;;;;;;;2.27;1.70;;;;;;;15.14;87.51;100578.88;5073505;28;20361;-83
2023/07/23 02:50:26;;;;;;;1.83;1.70;;;;;;;15.03;87.90;100561.94;5073623;28;20043;-82
2023/07/23 02:52:57;;;;;;;2.23;2.03;;;;;;;15.04;87.57;100566.25;5073314;28;20020;-82
2023/07/23 02:55:24;;;;;;;5.13;2.90;;;;;;;15.02;89.08;100558.47;5073696;28;20144;-82
2023/07/23 02:58:10;;;;;;;2.83;2.20;;;;;;;15.06;86.73;100573.13;5073288;28;20123;-82
2023/07/23 03:00:39;;;;;;;2.83;2.20;;;;;;;15.10;89.76;100566.88;5073174;28;20044;-82
2023/07/23 03:03:06;;;;;;;2.97;2.35;;;;;;;15.06;87.44;100562.66;5073466;28;20491;-82
2023/07/23 03:05:33;;;;;;;3.75;2.45;;;;;;;15.01;89.24;100550.69;5072542;28;20032;-83
2023/07/23 03:08:07;;;;;;;4.45;2.50;;;;;;;14.93;88.65;100541.38;5073303;28;20032;-82
2023/07/23 03:10:32;;;;;;;4.22;2.70;;;;;;;15.05;88.11;100560.13;5073220;28;20090;-82
2023/07/23 03:12:58;;;;;;;3.60;2.60;;;;;;;15.01;88.28;100554.16;5067530;28;20378;-82
2023/07/23 03:15:35;;;;;;;3.27;2.40;;;;;;;14.96;87.96;100537.78;5052720;28;20044;-82
2023/07/23 03:18:02;;;;;;;2.55;2.30;;;;;;;15.04;86.57;100547.97;5052962;28;20056;-83
2023/07/23 03:20:28;;;;;;;3.95;2.60;;;;;;;15.06;86.76;100546.97;5052697;28;20078;-82
2023/07/23 03:22:54;;;;;;;3.00;2.55;;;;;;;15.04;87.39;100535.72;5053266;28;20017;-83
2023/07/23 03:25:19;;;;;;;4.80;3.30;;;;;;;15.06;87.23;100539.13;5052925;28;20117;-82
2023/07/23 03:27:44;;;;;;;4.70;3.07;;;;;;;15.11;87.23;100544.19;5051860;28;20056;-83
2023/07/23 03:30:30;;;;;;;3.80;2.73;;;;;;;15.17;86.70;100554.41;5053220;28;20033;-83
2023/07/23 03:32:56;;;;;;;;;;;;;;;15.16;86.61;100547.47;5052592;28;20071;-83
2023/07/23 03:35:30;;;;;;;3.83;2.80;;;;;;;15.03;86.94;100533.19;5051940;28;19968;-83
2023/07/23 03:37:56;;;;;;;6.40;3.10;;;;;;;15.08;86.60;100533.88;5052917;28;20021;-83
2023/07/23 03:40:21;;;;;;;4.70;2.90;;;;;;;15.03;86.00;100523.56;5052189;28;20491;-82
2023/07/23 03:42:47;;;;;;;4.93;3.17;;;;;;;15.06;85.77;100533.91;5053047;28;20024;-82
2023/07/23 03:45:12;;;;;;;4.53;3.10;;;;;;;15.15;85.96;100543.16;5052456;28;20487;-83
2023/07/23 03:47:37;;;;;;;3.90;2.90;;;;;;;15.13;86.21;100539.75;5051671;28;20433;-83
2023/07/23 03:50:09;;;;;;;4.63;2.70;;;;;;;15.12;85.37;100531.06;5052473;28;20021;-83
2023/07/23 03:52:34;;;;;;;4.95;3.10;;;;;;;15.21;85.96;100542.91;5053260;28;20432;-82
2023/07/23 03:55:00;;;;;;;4.10;2.70;;;;;;;15.13;84.80;100529.28;5052113;28;20052;-82
2023/07/23 03:57:25;;;;;;;3.63;2.60;;;;;;;15.24;84.74;100548.03;5052374;28;20385;-82
2023/07/23 03:59:51;;;;;;;3.90;2.90;;;;;;;15.19;84.63;100536.91;5052621;28;20355;-83
2023/07/23 04:02:28;;;;;;;5.73;2.90;;;;;;;15.21;84.59;100540.28;5051549;28;20053;-83
2023/07/23 04:04:53;;;;;;;4.90;3.00;;;;;;;15.23;84.76;100535.03;5052295;28;20099;-84
2023/07/23 04:07:18;;;;;;;3.97;2.67;;;;;;;15.27;84.78;100547.03;5052403;28;20029;-83
2023/07/23 04:09:44;;;;;;;4.90;2.70;;;;;;;15.29;84.40;100551.31;5051485;28;20112;-83
2023/07/23 04:12:24;;;;;;;3.27;2.40;;;;;;;15.18;84.12;100531.72;5052099;28;20025;-83
2023/07/23 04:14:50;;;;;;;3.30;2.42;;;;;;;15.20;84.09;100535.97;5052591;28;20033;-83
2023/07/23 04:17:15;;;;;;;3.40;2.40;;;;;;;15.24;84.12;100536.72;5051357;28;20017;-82
2023/07/23 04:19:40;;;;;;;3.30;2.43;;;;;;;15.25;83.76;100538.44;5052517;28;20416;-82
2023/07/23 04:22:05;;;;;;;4.40;2.70;;;;;;;15.32;83.38;100549.47;5052363;28;20423;-83
2023/07/23 04:24:40;;;;;;;3.80;2.60;;;;;;;15.25;83.01;100534.03;5051641;28;20430;-81
2023/07/23 04:27:05;;;;;;;3.70;2.45;;;;;;;15.24;83.43;100528.88;5052246;28;20064;-82
2023/07/23 04:29:30;;;;;;;3.80;2.40;;;;;;;15.39;83.75;100561.41;5051567;28;20493;-81
2023/07/23 04:31:56;;;;;;;3.40;2.53;;;;;;;15.29;83.14;100535.63;5052023;28;20465;-83
2023/07/23 04:34:21;;;;;;;3.77;2.60;;;;;;;15.43;83.08;100548.16;5052231;28;20049;-83
2023/07/23 04:36:46;;;;;;;2.87;2.30;;;;;;;15.34;83.07;100535.44;5051661;28;20025;-83
2023/07/23 04:39:21;;;;;;;2.30;2.10;;;;;;;15.41;83.18;100547.34;5052070;28;20017;-82
2023/07/23 04:41:46;;;;;;;2.25;2.05;;;;;;;15.47;82.89;100548.03;5052517;28;20021;-83
2023/07/23 04:44:12;;;;;;;3.63;2.63;;;;;;;15.52;82.73;100551.28;5051249;28;20021;-83
2023/07/23 04:46:39;;;;;;;3.70;2.33;;;;;;;15.46;83.22;100539.31;5054467;28;20036;-83
2023/07/23 04:49:16;;;;;;;;;;;;;;;15.55;82.63;100546.78;5072626;28;20056;-80
2023/07/23 04:51:41;;;;;;;3.03;2.50;;;;;;;15.49;82.28;100538.34;5071388;28;20368;-81
2023/07/23 04:54:06;;;;;;;2.40;2.20;;;;;;;15.49;82.23;100526.13;5071920;28;20032;-81
2023/07/23 04:56:32;;;;;;;4.57;2.60;;;;;;;15.59;81.01;100539.69;5072219;28;20024;-81
2023/07/23 04:58:58;;;;;;;2.50;2.30;;;;;;;15.65;81.68;100546.44;5071437;28;20025;-81
2023/07/23 05:01:23;;;;;;;3.53;2.40;;;;;;;15.53;82.03;100525.09;5067800;28;20100;-84
2023/07/23 05:03:49;;;;;;;3.23;2.43;;;;;;;15.67;81.49;100544.56;5052679;28;20032;-89
2023/07/23 05:06:14;;;;;;;4.03;2.53;;;;;;;15.64;81.42;100539.50;5052628;28;20385;-90
2023/07/23 05:08:40;;;;;;;4.10;2.63;;;;;;;15.70;82.37;100536.59;5055358;28;20032;-89
2023/07/23 05:11:05;;;;;;;4.03;2.60;;;;;;;15.68;81.72;100543.66;5055821;28;20078;-85
2023/07/23 05:13:32;;;;;;;5.00;2.80;;;;;;;15.73;81.85;100539.09;5064121;28;20068;-87
2023/07/23 05:15:59;;;;;;;4.50;3.10;;;;;;;15.74;82.26;100549.50;5076011;28;20108;-86
2023/07/23 05:18:25;;;;;;;;;;;;;;;15.74;80.64;100553.91;5076027;28;20029;-85
2023/07/23 05:20:50;;;;;;;4.90;3.17;;;;;;;15.71;81.82;100541.75;5075671;28;19912;-86
2023/07/23 05:23:16;;;;;;;4.73;2.70;;;;;;;15.76;83.05;100552.06;5076019;28;20020;-90
2023/07/23 05:25:45;;;;;;;4.57;2.88;;;;;;;15.73;82.21;100546.97;5076013;28;20111;-89
2023/07/23 05:28:11;;;;;;;3.13;2.50;;;;;;;15.80;82.00;100552.78;5076686;28;20055;-90
2023/07/23 05:30:36;;;;;;;3.33;2.50;;;;;;;15.80;82.63;100556.25;5076601;28;20048;-90
2023/07/23 05:33:01;;;;;;;3.30;2.47;;;;;;;15.79;82.87;100540.63;5076298;28;20074;-89
2023/07/23 05:35:30;;;;;;;2.63;2.30;;;;;;;15.79;82.76;100551.91;5076348;28;20040;-90
2023/07/23 05:37:55;;;;;;;4.07;2.80;;;;;;;15.73;82.95;100532.09;5076278;28;20027;-90
2023/07/23 05:40:21;;;;;;;5.17;2.90;;;;;;;15.76;83.26;100541.59;5075307;28;20028;-87
2023/07/23 05:42:55;;;;;;;4.30;3.00;;;;;;;15.79;83.25;100540.63;5076293;28;20089;-90
2023/07/23 05:45:20;;;;;;;4.13;2.70;;;;;;;15.79;82.60;100536.22;5075396;28;20476;-86
2023/07/23 05:47:46;;;;;;;3.83;2.60;;;;;;;15.81;83.91;100537.00;5074938;28;20036;-87
2023/07/23 05:50:11;;;;;;;5.63;2.70;;;;;;;15.82;82.67;100545.72;5074940;28;20039;-88
2023/07/23 05:52:36;;;;;;;4.83;2.60;;;;;;;15.79;83.80;100541.44;5075677;28;20021;-85
2023/07/23 05:55:02;;;;;;;4.33;2.50;;;;;;;15.82;83.08;100556.19;5073769;28;20052;-84
2023/07/23 05:57:36;;;;;;;4.23;2.90;;;;;;;15.72;82.45;100540.84;5093642;28;20028;-89
2023/07/23 06:00:03;;;;;;;4.85;3.15;;;;;;;15.68;83.11;100531.44;5095130;28;20024;-85
2023/07/23 06:02:28;;;;;;;4.47;2.70;;;;;;;15.64;83.76;100519.41;5082182;28;20055;-89
2023/07/23 06:04:55;;;;;;;4.27;2.87;;;;;;;15.66;83.33;100521.94;5075598;28;20025;-90
2023/07/23 06:07:21;;;;;;;3.95;2.80;;;;;;;15.74;83.82;100530.34;5075942;28;20021;-88
2023/07/23 06:09:46;;;;;;;4.97;3.27;;;;;;;15.75;83.17;100538.13;5075405;28;20496;-84
2023/07/23 06:12:15;;;;;;;4.47;2.80;;;;;;;15.78;82.79;100539.75;5074084;28;20472;-85
2023/07/23 06:14:40;;;;;;;3.30;2.70;;;;;;;15.74;83.27;100532.97;5068172;28;20123;-85
2023/07/23 06:17:14;;;;;;;6.77;3.53;;;;;;;15.78;83.34;100539.75;5073765;28;20132;-84
2023/07/23 06:19:40;;;;;;;3.88;2.83;;;;;;;15.73;83.78;100539.09;5074513;28;20028;-83
2023/07/23 06:22:05;;;;;;;4.90;3.00;;;;;;;15.73;84.54;100536.50;5073399;28;20032;-84
2023/07/23 06:24:30;;;;;;;3.70;3.00;;;;;;;15.73;84.79;100536.50;5074393;28;20017;-82
2023/07/23 06:26:56;;;;;;;4.60;3.00;;;;;;;15.65;85.05;100528.97;5074684;28;20419;-82
2023/07/23 06:29:21;;;;;;;5.27;3.07;;;;;;;15.69;87.10;100542.75;5073589;28;20388;-83
2023/07/23 06:31:59;;;;;;;3.70;2.87;;;;;;;15.61;85.60;100548.28;5074024;28;20086;-82
2023/07/23 06:34:24;;;;;;;4.65;3.17;;;;;;;15.51;86.56;100529.53;5074312;28;20043;-82
2023/07/23 06:36:49;;;;;;;5.77;3.23;;;;;;;15.56;87.84;100550.25;5073714;28;20024;-83
2023/07/23 06:39:15;;;;;;;5.23;2.90;;;;;;;15.62;87.60;100554.41;5074043;28;20055;-82
2023/07/23 06:41:41;;;;;;;4.20;3.00;;;;;;;15.66;87.29;100561.19;5074203;28;20051;-82
2023/07/23 06:44:06;;;;;;;4.43;2.60;;;;;;;15.58;87.05;100540.59;5073350;28;20048;-84
2023/07/23 06:46:31;;;;;;;5.10;2.90;;;;;;;15.71;86.60;100564.47;5073950;28;20511;-82
2023/07/23 06:48:57;;;;;;;5.07;3.00;;;;;;;15.71;86.67;100573.16;5073598;28;20031;-82
2023/07/23 06:51:22;;;;;;;5.80;3.50;;;;;;;15.64;88.17;100558.63;5072688;28;20037;-82
2023/07/23 06:53:57;;;;;;;4.83;3.10;;;;;;;15.66;88.25;100563.81;5073927;28;20496;-82
2023/07/23 06:56:32;;;;;;;5.43;3.47;;;;;;;15.65;88.31;100567.34;5073627;28;20078;-83
2023/07/23 06:58:57;;;;;;;4.60;3.17;;;;;;;15.64;88.45;100550.78;5072758;28;20021;-83
2023/07/23 07:01:23;;;;;;;6.60;3.37;;;;;;;15.74;88.43;100590.53;5073273;28;20038;-83
2023/07/23 07:03:48;;;;;;;6.60;3.60;;;;;;;15.67;88.63;100581.19;5073723;28;20059;-82
2023/07/23 07:06:15;;;;;;;6.63;3.50;;;;;;;15.65;89.83;100583.06;5072565;28;20078;-82
2023/07/23 07:08:41;;;;;;;7.35;3.60;;;;;;;15.52;90.30;100572.22;5073669;28;20100;-83
2023/07/23 07:11:09;;;;;;;6.43;3.60;;;;;;;15.43;90.60;100566.44;5073242;28;20499;-81
2023/07/23 07:13:41;;;;;;;5.35;3.45;;;;;;;15.40;91.60;100563.13;5065729;28;20865;-83
2023/07/23 07:16:06;;;;;;;7.85;3.70;;;;;;;15.42;91.66;100571.75;5073294;28;20048;-82
2023/07/23 07:18:33;;;;;;;6.13;3.60;;;;;;;15.37;91.44;100565.84;5072934;28;20849;-81
2023/07/23 07:21:04;;;;;;;6.28;3.28;;;;;;;15.38;93.69;100578.00;5075480;28;20024;-81
2023/07/23 07:23:31;;;;;;;5.82;3.42;;;;;;;15.39;94.91;100579.72;5074817;28;20024;-81
2023/07/23 07:25:57;;;;;;;5.00;3.22;;;;;;;15.40;95.38;100578.81;5073163;28;20017;-81
2023/07/23 07:28:24;;;;;;;5.40;3.08;;;;;;;15.41;94.40;100578.72;5072948;28;20094;-81
2023/07/23 07:30:51;;;;;;;;;;;;;;;15.42;94.48;100580.44;5081488;22;20530;-80
2023/07/23 07:33:17;;;;;;;4.78;3.10;;;;;;;15.42;95.43;100579.59;5090679;28;19919;-81
2023/07/23 07:35:46;;;;;;;5.57;3.20;;;;;;;15.39;95.23;100582.31;5092990;28;20024;-82
2023/07/23 07:38:11;;;;;;;5.95;3.50;;;;;;;15.37;94.78;100571.06;5074686;28;20028;-79
2023/07/23 07:40:42;;;;;;;5.73;3.43;;;;;;;15.28;95.03;100567.91;5092531;28;20039;-80
2023/07/23 07:43:08;;;;;;;5.38;3.20;;;;;;;15.35;94.29;100573.75;5092074;28;20062;-79
2023/07/23 07:45:33;;;;;;;4.23;3.00;;;;;;;15.44;95.30;100578.63;5092929;28;20094;-79
2023/07/23 07:48:00;;;;;;;4.87;3.13;;;;;;;15.48;96.00;100581.13;5092036;28;20023;-82
2023/07/23 07:50:29;;;;;;;;;;;;;;;15.55;96.48;100572.94;5093424;28;20031;-81
2023/07/23 07:52:55;;;;;;;7.07;3.70;;;;;;;15.52;94.03;100572.22;5093084;28;20291;-80
2023/07/23 07:55:20;;;;;;;5.53;3.20;;;;;;;15.65;94.42;100572.59;5092273;28;20036;-81
2023/07/23 07:57:49;;;;;;;4.53;3.03;;;;;;;15.74;94.65;100574.81;5092950;28;20028;-82
2023/07/23 08:00:15;;;;;;;5.65;3.28;;;;;;;15.81;94.90;100568.41;5074202;28;20036;-81
2023/07/23 08:02:42;;;;;;;6.78;3.83;;;;;;;15.82;94.85;100561.44;5092035;28;20069;-80
2023/07/23 08:05:23;;;;;;;6.75;3.55;;;;;;;15.98;93.43;100578.19;5092681;28;20465;-80
2023/07/23 08:07:50;;;;;;;7.85;4.18;;;;;;;15.94;95.32;100567.94;5091813;28;20040;-82
2023/07/23 08:10:16;;;;;;;7.85;4.15;;;;;;;16.01;94.14;100572.84;5093031;28;20043;-82
2023/07/23 08:13:02;;;;;;;7.25;3.90;;;;;;;15.98;95.09;100562.50;5093300;28;20032;-81
2023/07/23 08:15:31;;;;;;;7.07;3.80;;;;;;;16.02;95.43;100556.22;5093375;28;20058;-82
2023/07/23 08:18:14;;;;;;;6.55;3.65;;;;;;;16.15;96.17;100569.63;5094319;28;20047;-81
2023/07/23 08:20:44;;;;;;;8.13;4.15;;;;;;;16.11;95.72;100567.22;5089673;28;20043;-82
2023/07/23 08:23:10;;;;;;;7.28;3.83;;;;;;;16.15;95.59;100580.09;5092416;28;20024;-82
2023/07/23 08:25:40;;;;;;;7.93;3.67;;;;;;;16.08;96.51;100568.22;5093745;28;20108;-81
2023/07/23 08:28:07;;;;;;;6.82;4.00;;;;;;;16.15;96.10;100579.28;5094132;28;20044;-82
2023/07/23 08:30:34;;;;;;;7.90;3.95;;;;;;;16.15;95.36;100576.66;5093920;28;20141;-82
2023/07/23 08:33:00;;;;;;;6.70;3.72;;;;;;;16.18;95.57;100579.97;5093970;28;20101;-82
2023/07/23 08:35:29;;;;;;;5.55;3.70;;;;;;;16.16;94.54;100571.34;5092349;28;20028;-81
2023/07/23 08:38:06;;;;;;;6.65;3.53;;;;;;;16.09;96.17;100551.59;5091554;28;20023;-82
2023/07/23 08:40:40;;;;;;;5.88;3.45;;;;;;;16.18;96.37;100564.28;5092791;28;20024;-82
2023/07/23 08:43:34;;;;;;;5.30;3.10;;;;;;;16.25;97.05;100570.09;5092694;28;20031;-83
2023/07/23 08:46:23;;;;;;;5.40;3.30;;;;;;;16.23;95.56;100571.06;5096782;28;20032;-83
2023/07/23 08:49:03;;;;;;;6.68;3.40;;;;;;;16.15;96.26;100574.03;5096274;28;20026;-82
2023/07/23 08:51:43;;;;;;;4.82;3.00;;;;;;;16.15;96.85;100574.88;5095875;28;20024;-82
2023/07/23 08:54:09;;;;;;;4.30;2.90;;;;;;;16.16;96.22;100573.94;5096287;28;20365;-82
2023/07/23 08:56:36;;;;;;;4.32;2.80;;;;;;;16.18;96.96;100579.97;5096578;28;20043;-82
2023/07/23 08:59:03;;;;;;;4.50;2.67;;;;;;;16.20;96.88;100572.03;5080677;28;20032;-81
2023/07/23 09:01:32;;;;;;;3.47;2.60;;;;;;;16.19;96.97;100565.97;5076174;28;20054;-83
2023/07/23 09:04:12;;;;;;;4.05;2.75;;;;;;;16.17;97.09;100561.69;5075538;28;20044;-83
2023/07/23 09:06:41;;;;;;;4.15;2.72;;;;;;;16.26;97.40;100582.28;5080832;28;20502;-82
2023/07/23 09:09:08;;;;;;;3.80;2.55;;;;;;;16.29;96.83;100582.13;5095344;28;20024;-83
2023/07/23 09:11:37;;;;;;;2.70;2.30;;;;;;;16.36;97.19;100567.84;5095765;28;20024;-82
2023/07/23 09:14:07;;;;;;;3.17;2.50;;;;;;;16.42;97.72;100573.72;5095865;28;20012;-83
2023/07/23 09:16:35;;;;;;;3.00;2.50;;;;;;;16.46;96.40;100581.38;5095693;28;20031;-83
2023/07/23 09:19:04;;;;;;;2.72;2.30;;;;;;;16.42;96.61;100582.44;5095439;28;20035;-82
2023/07/23 09:21:29;;;;;;;3.58;2.40;;;;;;;16.43;97.84;100573.69;5095896;28;20032;-83
2023/07/23 09:23:57;;;;;;;3.17;2.30;;;;;;;16.49;97.04;100580.41;5096287;28;20485;-79
2023/07/23 09:26:26;;;;;;;2.60;2.20;;;;;;;16.61;97.55;100581.63;5094946;28;20020;-79
2023/07/23 09:28:53;;;;;;;3.90;2.40;;;;;;;16.68;98.56;100583.03;5095353;28;20407;-82
2023/07/23 09:31:22;;;;;;;;;;;;;;;16.73;98.85;100578.47;5095538;28;20115;-81
2023/07/23 09:33:48;;;;;;;2.83;2.28;;;;;;;16.72;98.29;100576.75;5094824;28;20277;-81
2023/07/23 09:36:13;;;;;;;3.63;2.40;;;;;;;16.67;97.71;100586.56;5076917;28;20061;-82
2023/07/23 09:38:45;;;;;;;3.53;2.37;;;;;;;16.64;99.23;100584.13;5092011;28;20081;-81
2023/07/23 09:41:11;;;;;;;2.58;2.13;;;;;;;16.67;99.12;100589.19;5094332;28;20140;-81
2023/07/23 09:43:36;;;;;;;2.67;2.30;;;;;;;16.63;99.22;100590.28;5094290;28;20527;-80
2023/07/23 09:46:02;;;;;;;3.03;2.30;;;;;;;16.59;100.00;100586.06;5095362;28;20034;-81
2023/07/23 09:48:28;;;;;;;3.13;2.37;;;;;;;16.58;100.00;100581.75;5095599;28;20492;-81
2023/07/23 09:50:57;;;;;;;3.50;2.50;;;;;;;16.56;100.00;100592.31;5093614;28;20020;-81
2023/07/23 09:53:22;;;;;;;3.33;2.42;;;;;;;16.52;99.33;100588.97;5094302;28;20313;-81
2023/07/23 09:55:50;;;;;;;3.23;2.30;;;;;;;16.53;100.00;100587.19;5095287;28;20201;-81
2023/07/23 09:58:20;;;;;;;3.45;2.35;;;;;;;16.51;100.00;100582.03;5093103;28;20032;-81
2023/07/23 10:00:46;;;;;;;3.35;2.50;;;;;;;16.55;100.00;100595.00;5093958;28;20024;-81
2023/07/23 10:03:15;;;;;;;3.20;2.47;;;;;;;16.54;100.00;100588.06;5094748;28;20073;-82
2023/07/23 10:05:43;;;;;;;3.03;2.40;;;;;;;16.48;100.00;100587.41;5095469;28;20372;-81
2023/07/23 10:08:10;;;;;;;3.83;2.58;;;;;;;16.49;100.00;100599.59;5094348;28;20024;-81
2023/07/23 10:10:35;;;;;;;2.63;2.22;;;;;;;16.42;100.00;100595.56;5095378;28;20099;-80
2023/07/23 10:13:04;;;;;;;3.10;2.40;;;;;;;16.38;100.00;100601.00;5095082;28;20488;-81
2023/07/23 10:15:30;;;;;;;3.47;2.50;;;;;;;16.30;100.00;100598.69;5093879;28;20032;-81
2023/07/23 10:18:00;;;;;;;3.65;2.20;;;;;;;16.27;100.00;100610.13;5095146;28;20028;-81
2023/07/23 10:20:29;;;;;;;2.90;2.28;;;;;;;16.26;100.00;100612.81;5094661;28;20062;-81
2023/07/23 10:22:54;;;;;;;2.38;2.10;;;;;;;16.22;100.00;100606.88;5093968;28;20474;-81
2023/07/23 10:25:31;;;;;;;2.43;2.10;;;;;;;16.27;100.00;100610.13;5094571;28;20024;-81
2023/07/23 10:28:03;;;;;;;2.60;1.90;;;;;;;16.29;100.00;100610.09;5094653;28;20024;-81
2023/07/23 10:30:30;;;;;;;2.58;2.15;;;;;;;16.28;100.00;100606.59;5094035;28;20028;-80
2023/07/23 10:33:28;;;;;;;2.67;2.10;;;;;;;16.28;100.00;100618.84;5094382;28;20051;-79
2023/07/23 10:35:53;;;;;;;2.83;2.10;;;;;;;16.29;100.00;100613.53;5094757;22;20044;-80
2023/07/23 10:38:39;;;;;;;4.03;2.20;;;;;;;16.30;100.00;100617.03;5071880;28;20040;-80
2023/07/23 10:41:05;;;;;;;2.15;1.95;;;;;;;16.32;100.00;100617.81;5073308;28;20032;-81
2023/07/23 10:43:52;;;;;;;2.30;1.92;;;;;;;16.32;100.00;100616.03;5073447;28;20180;-79
2023/07/23 10:46:19;;;;;;;3.45;2.40;;;;;;;16.33;100.00;100609.88;5073921;28;20024;-81
2023/07/23 10:48:51;;;;;;;2.45;2.00;;;;;;;16.36;100.00;100609.75;5072114;28;20033;-79
2023/07/23 10:51:21;;;;;;;2.53;1.92;;;;;;;16.40;100.00;100607.84;5072996;28;20337;-81
2023/07/23 10:54:02;;;;;;;2.85;2.25;;;;;;;16.47;100.00;100611.06;5073613;28;20396;-81
2023/07/23 10:56:33;;;;;;;2.67;2.30;;;;;;;16.54;100.00;100609.03;5073318;28;20021;-79
2023/07/23 10:59:17;;;;;;;2.88;2.22;;;;;;;16.58;100.00;100602.72;5071416;28;20064;-80
2023/07/23 11:01:44;;;;;;;4.43;2.50;;;;;;;16.56;100.00;100604.53;5073003;28;20025;-80
2023/07/23 11:04:18;;;;;;;2.30;2.10;;;;;;;16.59;100.00;100604.41;5071561;28;20020;-82
2023/07/23 11:07:25;;;;;;;2.60;2.40;;;;;;;16.67;100.00;100611.03;5072764;28;20024;-82
2023/07/23 11:09:54;;;;;;;4.18;2.80;;;;;;;16.71;100.00;100600.41;5062448;28;20068;-82
2023/07/23 11:12:21;;;;;;;4.07;2.70;;;;;;;16.77;100.00;100602.75;5072480;28;20020;-80
2023/07/23 11:14:47;;;;;;;2.70;2.40;;;;;;;16.90;100.00;100597.78;5064762;28;20496;-82
2023/07/23 11:17:15;;;;;;;2.93;2.50;;;;;;;16.96;100.00;100602.78;5053253;28;20029;-79
2023/07/23 11:19:45;;;;;;;5.82;3.33;;;;;;;17.06;100.00;100592.72;5052786;28;20071;-81
2023/07/23 11:22:12;;;;;;;3.78;2.70;;;;;;;17.19;100.00;100585.97;5053123;28;20484;-82
2023/07/23 11:24:38;;;;;;;3.40;2.70;;;;;;;17.47;100.00;100597.78;5052646;28;20025;-82
2023/07/23 11:27:04;;;;;;;3.33;2.70;;;;;;;17.65;100.00;100601.31;5052954;28;20051;-80
2023/07/23 11:29:30;;;;;;;4.87;3.00;;;;;;;17.80;100.00;100599.69;5054079;28;20028;-80
2023/07/23 11:31:56;;;;;;;3.55;2.80;;;;;;;17.96;100.00;100597.16;5052474;28;20032;-82